Time;durP1;ratioP1;P1;durP2;ratioP2;P2;SDS_P1;SDS_P2;PMS_P1;PMS_P2;Temp;Humidity;BMP_temperature;BMP_pressure;BME280_temperature;BME280_humidity;BME280_pressure;Samples;Min_cycle;Max_cycle;Signal;HPM_P1;HPM_P2
2022/05/31 00:02:26;;;;;;;;;16.00;13.00;;;;;12.19;95.32;99551.91;6284324;20;3519070;-48
2022/05/31 00:04:54;;;;;;;;;18.50;17.00;;;;;11.94;96.80;99542.88;6316335;20;2828416;-50
2022/05/31 00:07:22;;;;;;;;;21.00;17.33;;;;;11.77;97.09;99540.44;6284336;20;3570081;-51
2022/05/31 00:09:50;;;;;;;;;18.00;18.00;;;;;11.80;98.75;99540.25;6282449;20;2491956;-46
2022/05/31 00:12:19;;;;;;;;;17.50;17.50;;;;;11.77;97.67;99532.38;6284112;20;2824291;-49
2022/05/31 00:14:48;;;;;;;;;23.67;20.00;;;;;11.83;97.92;99526.59;6283830;20;2835687;-50
2022/05/31 00:17:16;;;;;;;;;21.67;18.67;;;;;11.50;98.92;99527.94;6315003;20;2820449;-49
2022/05/31 00:19:45;;;;;;;;;20.00;18.00;;;;;11.55;98.47;99525.78;6312972;20;2833600;-49
2022/05/31 00:22:21;;;;;;;;;18.00;18.00;;;;;11.71;98.53;99530.13;6283780;20;2491953;-48
2022/05/31 00:24:51;;;;;;;;;16.00;11.33;;;;;11.64;98.60;99530.56;6281320;20;2790948;-51
2022/05/31 00:27:23;;;;;;;;;11.67;10.00;;;;;11.68;99.13;99528.50;6312023;20;2789940;-53
2022/05/31 00:29:52;;;;;;;;;18.67;15.33;;;;;11.98;97.97;99532.75;6313282;20;3548168;-51
2022/05/31 00:32:33;;;;;;;;;20.00;18.50;;;;;12.03;98.07;99526.09;6279025;20;2500309;-51
2022/05/31 00:35:11;;;;;;;;;20.00;17.00;;;;;12.02;98.67;99527.06;6281515;20;2811764;-49
2022/05/31 00:37:39;;;;;;;;;19.00;19.00;;;;;12.13;98.14;99528.13;6282913;20;2839878;-48
2022/05/31 00:40:09;;;;;;;;;16.67;16.67;;;;;11.94;98.29;99524.03;6280189;20;3551297;-48
2022/05/31 00:43:05;;;;;;;;;21.50;20.00;;;;;11.94;99.04;99518.66;6284367;20;2833660;-48
2022/05/31 00:45:59;;;;;;;;;15.50;15.50;;;;;12.25;98.04;99527.28;6284770;20;2819006;-47
2022/05/31 00:48:45;;;;;;;;;23.50;22.50;;;;;11.99;98.33;99532.66;6283272;20;2839969;-49
2022/05/31 00:51:18;;;;;;;;;18.33;18.33;;;;;11.95;97.86;99535.66;6277669;20;3564810;-46
2022/05/31 00:54:00;;;;;;;;;21.50;20.00;;;;;11.89;98.25;99534.25;6284655;20;2828375;-46
2022/05/31 00:56:30;;;;;;;;;22.33;21.67;;;;;11.71;99.49;99546.25;6280757;20;3577411;-48
2022/05/31 00:59:17;;;;;;;;;20.00;20.00;;;;;11.57;100.00;99548.06;6279407;20;2834620;-46
2022/05/31 01:01:51;;;;;;;;;21.50;20.50;;;;;11.53;100.00;99551.94;6279811;20;2500301;-47
2022/05/31 01:04:41;;;;;;;;;12.50;12.50;;;;;11.74;100.00;99562.19;6280534;20;2813155;-48
2022/05/31 01:07:10;;;;;;;;;19.00;19.00;;;;;11.78;98.30;99553.81;6276272;20;2496141;-48
2022/05/31 01:09:38;;;;;;;;;22.00;20.50;;;;;11.51;98.67;99559.25;6279915;20;2850270;-46
2022/05/31 01:12:07;;;;;;;;;16.67;16.67;;;;;11.62;98.63;99556.69;6278711;20;3553358;-47
2022/05/31 01:14:38;;;;;;;;;18.00;18.00;;;;;11.56;99.01;99565.16;6277489;20;2500469;-46
2022/05/31 01:17:15;;;;;;;;;23.50;20.00;;;;;11.53;100.00;99573.44;6277533;20;2498283;-46
2022/05/31 01:19:57;;;;;;;;;20.00;18.67;;;;;11.60;98.87;99576.56;6278446;20;3567960;-46
2022/05/31 01:22:52;;;;;;;;;24.50;22.50;;;;;11.35;100.00;99574.69;6283984;20;2854496;-48
2022/05/31 01:25:55;;;;;;;;;25.50;21.50;;;;;11.27;100.00;99579.69;6281525;20;2839978;-48
2022/05/31 01:29:17;;;;;;;;;25.00;23.00;;;;;11.48;100.00;99582.75;6275425;20;2500295;-47
2022/05/31 01:32:05;;;;;;;;;25.50;25.50;;;;;11.70;100.00;99584.88;6278840;20;2844142;-47
2022/05/31 01:35:01;;;;;;;;;24.00;20.00;;;;;11.57;100.00;99588.41;6281744;20;2844094;-46
2022/05/31 01:38:09;;;;;;;;;22.00;22.00;;;;;11.39;100.00;99587.78;6278366;20;2487802;-46
2022/05/31 01:41:11;;;;;;;;;27.50;24.50;;;;;11.25;100.00;99595.06;6277844;20;2837875;-49
2022/05/31 01:43:45;;;;;;;;;27.00;24.00;;;;;11.27;100.00;99593.13;6281067;20;2849208;-48
2022/05/31 01:46:28;;;;;;;;;28.00;24.50;;;;;11.41;99.93;99595.78;6280547;20;2835750;-49
2022/05/31 01:48:59;;;;;;;;;21.00;20.00;;;;;11.68;99.47;99598.44;6278858;20;2496154;-52
2022/05/31 01:51:28;;;;;;;;;24.00;23.00;;;;;11.41;99.37;99606.53;6279900;20;2835701;-49
2022/05/31 01:53:59;;;;;;;;;22.00;22.00;;;;;11.38;100.00;99609.41;6277952;20;2836929;-51
2022/05/31 01:56:27;;;;;;;;;23.00;21.00;;;;;11.55;100.00;99609.13;6279997;20;2500469;-50
2022/05/31 01:58:56;;;;;;;;;24.00;24.00;;;;;11.32;100.00;99607.13;6278989;20;2862948;-51
2022/05/31 02:01:33;;;;;;;;;31.00;29.00;;;;;11.23;100.00;99607.75;6280716;20;2856510;-47
2022/05/31 02:04:02;;;;;;;;;22.00;21.00;;;;;11.41;100.00;99606.53;6277890;20;2826373;-50
2022/05/31 02:06:40;;;;;;;;;29.50;28.00;;;;;11.25;100.00;99600.44;6276600;20;2858598;-49
2022/05/31 02:09:14;;;;;;;;;30.50;27.00;;;;;11.29;100.00;99601.94;6282390;20;2852370;-46
2022/05/31 02:11:42;;;;;;;;;27.00;26.50;;;;;11.11;100.00;99607.59;6277363;20;2848221;-50
2022/05/31 02:14:11;;;;;;;;;31.50;25.00;;;;;11.08;100.00;99609.59;6282728;20;2845115;-48
2022/05/31 02:16:40;;;;;;;;;26.00;22.00;;;;;11.04;100.00;99614.31;6280363;20;2840896;-52
2022/05/31 02:19:23;;;;;;;;;26.00;26.00;;;;;11.42;100.00;99600.16;6283335;20;2850266;-52
2022/05/31 02:21:56;;;;;;;;;25.00;22.50;;;;;11.68;98.65;99613.72;6281980;20;2832596;-51
2022/05/31 02:24:26;;;;;;;;;22.00;19.50;;;;;11.34;98.54;99615.94;6277916;20;2496090;-51
2022/05/31 02:26:56;;;;;;;;;20.00;19.00;;;;;11.52;97.20;99617.41;6279337;20;2832581;-52
2022/05/31 02:29:30;;;;;;;;;25.50;22.00;;;;;11.63;96.48;99612.19;6282297;20;2846085;-47
2022/05/31 02:32:02;;;;;;;;;29.00;23.00;;;;;11.54;97.58;99611.94;6278509;20;2845465;-49
2022/05/31 02:34:39;;;;;;;;;22.00;21.50;;;;;11.43;97.08;99615.34;6278543;20;2848250;-47
2022/05/31 02:37:09;;;;;;;;;27.00;23.00;;;;;11.71;96.75;99606.28;6281177;20;2838817;-47
2022/05/31 02:39:38;;;;;;;;;24.00;22.00;;;;;11.57;96.75;99601.84;6277145;20;2846220;-47
2022/05/31 02:42:09;;;;;;;;;28.67;26.00;;;;;11.67;96.76;99607.47;6279061;20;2858575;-47
2022/05/31 02:44:39;;;;;;;;;24.67;24.67;;;;;11.60;96.25;99601.63;6311221;20;2846083;-46
2022/05/31 02:47:10;;;;;;;;;28.00;24.50;;;;;11.47;96.88;99608.78;6311022;20;2845061;-48
2022/05/31 02:49:40;;;;;;;;;27.00;25.50;;;;;11.57;96.87;99607.22;6276339;20;2846083;-47
2022/05/31 02:52:09;;;;;;;;;25.33;25.33;;;;;11.67;97.49;99612.00;6279579;20;3589890;-46
2022/05/31 02:54:38;;;;;;;;;27.00;24.50;;;;;11.78;96.96;99609.44;6279998;20;2837971;-48
2022/05/31 02:57:08;;;;;;;;;26.00;24.00;;;;;11.68;97.15;99608.31;6278248;20;2847676;-49
2022/05/31 02:59:36;;;;;;;;;26.50;26.50;;;;;11.71;97.25;99616.19;6280133;20;2846118;-50
2022/05/31 03:02:05;;;;;;;;;29.50;26.50;;;;;11.80;97.13;99607.50;6279903;20;2856500;-48
2022/05/31 03:04:34;;;;;;;;;30.67;28.67;;;;;11.73;97.26;99612.44;6279567;20;2841986;-52
2022/05/31 03:07:03;;;;;;;;;25.00;23.50;;;;;11.62;97.86;99610.47;6309244;20;2500277;-49
2022/05/31 03:09:32;;;;;;;;;26.50;26.50;;;;;11.31;99.77;99621.53;6278074;20;2844084;-48
2022/05/31 03:12:15;;;;;;;;;29.00;26.67;;;;;11.79;98.74;99619.22;6281030;20;2857607;-52
2022/05/31 03:15:12;;;;;;;;;23.33;23.33;;;;;11.80;98.63;99618.28;6311597;20;3585864;-51
2022/05/31 03:18:08;;;;;;;;;29.50;27.50;;;;;11.62;97.84;99609.59;6276637;20;2845033;-49
2022/05/31 03:20:51;;;;;;;;;27.00;25.67;;;;;11.63;98.02;99612.19;6263966;20;2841018;-51
2022/05/31 03:23:39;;;;;;;;;26.50;25.50;;;;;11.78;97.20;99609.44;6308086;20;2852357;-50
2022/05/31 03:26:13;;;;;;;;;35.00;29.33;;;;;11.53;97.52;99610.22;6276930;20;3612351;-51
2022/05/31 03:28:41;;;;;;;;;24.00;23.00;;;;;11.16;99.79;99608.16;6308609;20;2838822;-48
2022/05/31 03:31:10;;;;;;;;;21.00;20.00;;;;;10.91;100.00;99613.38;6275329;20;2825316;-51
2022/05/31 03:33:39;;;;;;;;;28.50;25.00;;;;;11.10;99.89;99602.28;6278854;20;2850247;-48
2022/05/31 03:36:08;;;;;;;;;27.50;25.00;;;;;11.41;96.69;99603.84;6276792;20;2833592;-46
2022/05/31 03:38:37;;;;;;;;;24.00;21.00;;;;;10.91;98.07;99600.81;6278433;20;2840906;-48
2022/05/31 03:41:06;;;;;;;;;29.00;26.00;;;;;10.97;99.29;99597.72;6275011;20;2836814;-46
2022/05/31 03:43:36;;;;;;;;;26.00;24.50;;;;;11.19;95.57;99599.88;6276513;20;2835721;-50
2022/05/31 03:46:12;;;;;;;;;27.50;26.00;;;;;10.94;97.99;99589.84;6277081;20;2846248;-47
2022/05/31 03:48:41;;;;;;;;;31.00;28.00;;;;;10.95;98.33;99604.13;6275001;20;2845172;-48
2022/05/31 03:51:12;;;;;;;;;29.00;27.50;;;;;10.92;99.25;99612.41;6276494;20;2840905;-48
2022/05/31 03:53:40;;;;;;;;;28.00;25.00;;;;;11.14;98.46;99614.59;6284793;20;2836717;-46
2022/05/31 03:56:13;;;;;;;;;32.33;27.00;;;;;11.10;98.61;99621.97;6280898;20;2864830;-47
2022/05/31 03:58:42;;;;;;;;;33.00;30.67;;;;;11.46;98.14;99620.53;6315421;20;3595040;-48
2022/05/31 04:01:10;;;;;;;;;29.00;27.50;;;;;11.32;98.89;99618.75;6278700;20;2860677;-50
2022/05/31 04:03:39;;;;;;;;;28.50;24.50;;;;;11.28;99.80;99621.75;6282025;20;2846672;-58
2022/05/31 04:06:09;;;;;;;;;34.00;29.33;;;;;11.34;100.00;99621.31;6282354;20;3607521;-52
2022/05/31 04:08:38;;;;;;;;;32.33;29.33;;;;;11.57;100.00;99631.41;6314018;20;3602335;-51
2022/05/31 04:11:07;;;;;;;;;34.50;32.00;;;;;11.92;97.98;99636.28;6281826;20;2850261;-51
2022/05/31 04:13:35;;;;;;;;;33.33;31.67;;;;;11.97;98.47;99635.97;6286355;20;3578408;-52
2022/05/31 04:16:12;;;;;;;;;35.00;28.00;;;;;12.48;95.51;99642.28;6305265;20;3612888;-53
2022/05/31 04:18:46;;;;;;;;;27.33;26.33;;;;;12.22;96.72;99637.84;6280387;20;3587859;-47
2022/05/31 04:21:17;;;;;;;;;31.67;28.00;;;;;12.32;96.13;99636.22;6277792;20;3599237;-46
2022/05/31 04:23:58;;;;;;;;;23.00;22.00;;;;;12.56;94.70;99630.97;6287476;20;2844006;-48
2022/05/31 04:26:37;;;;;;;;;31.67;26.33;;;;;12.55;94.23;99642.69;6287502;20;2848261;-48
2022/05/31 04:29:06;;;;;;;;;34.33;28.00;;;;;12.93;92.41;99642.69;6318856;20;3597231;-48
2022/05/31 04:31:35;;;;;;;;;30.00;29.33;;;;;12.71;94.27;99639.78;6288184;20;3594091;-46
2022/05/31 04:34:05;;;;;;;;;26.00;24.33;;;;;13.11;94.21;99645.88;6319690;20;3587837;-48
2022/05/31 04:36:34;;;;;;;;;23.00;22.00;;;;;12.93;94.67;99647.22;6282544;20;2845640;-46
2022/05/31 04:39:04;;;;;;;;;21.50;20.50;;;;;13.28;91.88;99644.66;6286362;20;2839953;-48
2022/05/31 04:41:33;;;;;;;;;24.50;22.00;;;;;13.45;90.40;99653.34;6285077;20;2839825;-46
2022/05/31 04:44:04;;;;;;;;;20.00;18.50;;;;;13.65;89.85;99652.72;6284365;20;2500264;-47
2022/05/31 04:46:35;;;;;;;;;22.50;20.00;;;;;13.59;89.33;99650.50;6282955;20;2500285;-46
2022/05/31 04:49:05;;;;;;;;;20.50;19.00;;;;;13.52;90.31;99650.06;6283655;20;2839835;-48
2022/05/31 04:51:34;;;;;;;;;18.67;17.33;;;;;13.96;87.99;99648.56;6276868;20;3558686;-50
2022/05/31 04:54:04;;;;;;;;;52.00;44.00;;;;;14.02;86.84;99650.78;6283775;20;2835809;-48
2022/05/31 04:56:34;;;;;;;;;22.50;18.00;;;;;14.28;86.07;99647.94;6281658;20;2832558;-47
2022/05/31 04:59:02;;;;;;;;;29.50;26.50;;;;;14.23;86.00;99647.44;6282889;20;2500253;-49
2022/05/31 05:01:35;;;;;;;;;27.00;23.67;;;;;14.38;85.35;99645.38;6282036;20;3581550;-49
2022/05/31 05:04:04;;;;;;;;;20.00;17.00;;;;;14.52;85.76;99641.59;6276446;20;2496108;-48
2022/05/31 05:06:33;;;;;;;;;14.67;13.33;;;;;14.53;84.39;99643.34;6280957;20;3534632;-47
2022/05/31 05:09:01;;;;;;;;;21.00;18.00;;;;;15.15;83.21;99648.28;6278864;20;2483620;-52
2022/05/31 05:11:32;;;;;;;;;17.00;17.00;;;;;15.42;82.53;99645.13;6280137;20;2492015;-48
2022/05/31 05:14:01;;;;;;;;;18.33;17.33;;;;;15.47;81.24;99642.91;6281979;20;3562714;-49
2022/05/31 05:16:29;;;;;;;;;15.33;15.00;;;;;15.68;80.65;99645.69;6283921;20;3542932;-46
2022/05/31 05:18:57;;;;;;;;;15.00;15.00;;;;;15.90;79.15;99647.47;6283005;20;2492007;-47
2022/05/31 05:21:26;;;;;;;;;13.00;12.00;;;;;15.76;79.35;99642.38;6284156;20;2797274;-49
2022/05/31 05:23:55;;;;;;;;;15.00;13.00;;;;;15.82;79.56;99646.41;6285645;20;2805492;-51
2022/05/31 05:26:22;;;;;;;;;14.50;13.50;;;;;15.89;78.88;99637.66;6284801;20;2806522;-47
2022/05/31 05:31:40;;;;;;;;;12.60;9.60;;;;;16.21;77.17;99647.59;6306909;20;2790921;-50
2022/05/31 05:34:09;;;;;;;;;12.67;11.33;;;;;16.49;77.59;99650.63;6283294;20;3533544;-50
2022/05/31 05:36:38;;;;;;;;;12.67;12.67;;;;;16.50;77.46;99655.91;6277699;20;3524327;-46
2022/05/31 05:39:10;;;;;;;;;14.50;11.50;;;;;16.54;78.40;99640.25;6285799;20;2795053;-48
2022/05/31 05:41:42;;;;;;;;;10.33;10.33;;;;;16.70;75.60;99643.34;6281872;20;2789904;-49
2022/05/31 05:44:11;;;;;;;;;10.00;10.00;;;;;17.21;74.64;99656.00;6313620;20;3507530;-46
2022/05/31 05:46:40;;;;;;;;;10.60;9.60;;;;;17.10;73.67;99650.69;6337576;20;2791948;-47
2022/05/31 05:49:08;;;;;;;;;11.00;11.00;;;;;17.49;72.31;99645.38;6282025;20;2791973;-45
2022/05/31 05:51:37;;;;;;;;;10.33;10.33;;;;;17.81;72.72;99655.16;6282489;20;2792077;-48
2022/05/31 05:54:06;;;;;;;;;9.40;9.40;;;;;17.65;71.89;99659.25;6337878;20;2744012;-48
2022/05/31 05:56:36;;;;;;;;;9.00;9.00;;;;;18.00;70.30;99666.03;6306686;20;2755527;-48
2022/05/31 05:59:06;;;;;;;;;10.00;9.00;;;;;17.85;70.70;99660.19;6307731;20;2775250;-50
2022/05/31 06:01:40;;;;;;;;;10.00;10.00;;;;;17.95;71.23;99666.47;6282426;20;2788948;-49
2022/05/31 06:04:39;;;;;;;;;7.67;7.67;;;;;18.03;69.33;99663.03;6310564;20;2754443;-50
2022/05/31 06:07:31;;;;;;;;;9.00;8.80;;;;;18.30;69.51;99656.00;6336536;20;2750741;-48
2022/05/31 06:10:17;;;;;;;;;5.20;5.20;;;;;18.48;67.51;99662.41;6335143;20;2744058;-53
2022/05/31 06:13:02;;;;;;;;;11.33;10.33;;;;;18.29;69.39;99665.19;6309913;20;2786771;-49
2022/05/31 06:15:47;;;;;;;;;9.00;7.60;;;;;18.57;68.64;99664.28;6332838;20;2742957;-49
2022/05/31 06:18:27;;;;;;;;;8.60;8.60;;;;;18.79;68.11;99656.81;6341266;20;2739854;-55
2022/05/31 06:21:05;;;;;;;;;8.60;8.60;;;;;18.88;67.96;99655.06;6336311;20;2754448;-52
2022/05/31 06:23:38;;;;;;;;;9.20;9.20;;;;;19.46;66.70;99650.22;6308000;20;2758671;-49
2022/05/31 06:26:07;;;;;;;;;7.00;7.00;;;;;19.59;66.69;99660.75;6311679;20;2742003;-51
2022/05/31 06:28:37;;;;;;;;;8.80;8.80;;;;;20.19;63.21;99660.16;6340628;20;2756531;-48
2022/05/31 06:31:07;;;;;;;;;8.00;6.00;;;;;20.14;61.44;99665.22;6307661;20;2737819;-52
2022/05/31 06:33:36;;;;;;;;;6.80;6.40;;;;;20.13;62.73;99661.66;6341316;20;2737809;-51
2022/05/31 06:36:07;;;;;;;;;6.00;6.00;;;;;19.92;62.55;99661.97;6341009;20;2741966;-51
2022/05/31 06:38:37;;;;;;;;;6.75;5.00;;;;;20.26;59.84;99674.03;6342247;20;2691929;-53
2022/05/31 06:41:05;;;;;;;;;5.33;5.33;;;;;20.12;60.57;99680.91;6318221;20;2737785;-52
2022/05/31 06:43:37;;;;;;;;;7.00;7.00;;;;;20.63;59.16;99684.78;6317972;20;2743998;-48
2022/05/31 06:46:11;;;;;;;;;6.00;4.60;;;;;21.13;58.95;99688.69;6340081;20;2734661;-53
2022/05/31 06:48:41;;;;;;;;;5.00;5.00;;;;;21.26;57.50;99687.19;6342937;20;2752459;-48
2022/05/31 06:56:47;;;;;;;;;5.00;5.00;;;;;21.29;57.15;99685.16;6338234;20;2729412;-52
2022/05/31 06:56:59;;;;;;;;;4.80;4.80;;;;;21.23;57.10;99687.53;6341456;20;2718990;-47
2022/05/31 06:59:29;;;;;;;;;6.00;6.00;;;;;21.42;56.47;99686.44;6340123;20;2742958;-50
2022/05/31 07:02:04;;;;;;;;;5.00;5.00;;;;;21.48;56.33;99682.19;6310515;20;2748268;-54
2022/05/31 07:04:38;;;;;;;;;4.80;4.00;;;;;22.02;56.19;99695.53;6308057;20;2738807;-55
2022/05/31 07:07:08;;;;;;;;;5.20;5.20;;;;;22.04;54.81;99699.81;6342819;20;2732615;-54
2022/05/31 07:09:37;;;;;;;;;6.40;5.20;;;;;23.10;51.94;99700.88;6339498;20;2736706;-50
2022/05/31 07:12:07;;;;;;;;;5.60;5.60;;;;;22.37;53.49;99710.81;6343174;20;2737845;-53
2022/05/31 07:14:37;;;;;;;;;4.40;4.40;;;;;21.77;56.06;99708.25;6340873;20;2735681;-53
2022/05/31 07:17:09;;;;;;;;;8.80;6.00;;;;;21.74;54.50;99708.59;6340717;20;2746183;-50
2022/05/31 07:19:42;;;;;;;;;4.00;4.00;;;;;22.54;51.44;99707.06;6308419;20;2739845;-55
2022/05/31 07:22:31;;;;;;;;;6.00;6.00;;;;;23.07;53.36;99714.91;6342021;20;2733678;-53
2022/05/31 07:25:01;;;;;;;;;6.40;6.40;;;;;22.30;52.44;99716.13;6341802;20;2737738;-56
2022/05/31 07:27:30;;;;;;;;;7.00;7.00;;;;;22.00;54.04;99706.63;6315743;20;1904546;-52
2022/05/31 07:30:01;;;;;;;;;6.40;6.00;;;;;23.22;51.97;99718.63;6315531;20;2735047;-57
2022/05/31 07:32:31;;;;;;;;;6.60;6.60;;;;;21.96;50.63;99701.66;6346408;20;2733638;-55
2022/05/31 07:35:21;;;;;;;;;5.80;5.80;;;;;23.34;50.62;99703.53;6342340;20;2743991;-55
2022/05/31 07:37:50;;;;;;;;;7.00;5.20;;;;;23.12;49.88;99704.28;6315811;20;2721078;-56
2022/05/31 07:40:20;;;;;;;;;7.00;7.00;;;;;23.32;50.44;99711.06;6344323;20;2741935;-55
2022/05/31 07:42:49;;;;;;;;;6.00;6.00;;;;;23.41;48.39;99704.53;6314301;20;2739952;-56
2022/05/31 07:45:19;;;;;;;;;4.00;4.00;;;;;23.52;48.80;99710.66;6312354;20;2743984;-54
2022/05/31 07:47:47;;;;;;;;;4.00;4.00;;;;;23.55;48.12;99711.16;6294604;20;2736734;-55
2022/05/31 07:50:17;;;;;;;;;5.60;4.20;;;;;22.23;52.52;99709.59;6344841;20;2741943;-56
2022/05/31 07:52:47;;;;;;;;;6.20;6.20;;;;;21.09;55.47;99700.91;6314813;20;2735693;-52
2022/05/31 07:55:17;;;;;;;;;5.80;5.80;;;;;22.45;49.47;99719.00;6346085;20;2740971;-55
2022/05/31 08:00:34;;;;;;;;;5.80;5.80;;;;;22.98;49.85;99716.78;6314565;20;2739865;-51
2022/05/31 08:03:05;;;;;;;;;6.80;6.40;;;;;22.54;49.53;99718.00;6314330;20;2737753;-53
2022/05/31 08:05:38;;;;;;;;;6.00;6.00;;;;;22.09;51.28;99716.56;6322201;20;2740878;-54
2022/05/31 08:08:09;;;;;;;;;6.00;6.00;;;;;21.05;56.15;99712.16;6346364;20;2739852;-53
2022/05/31 08:11:12;;;;;;;;;10.00;5.80;;;;;21.15;54.11;99711.22;6343133;20;2757567;-52
2022/05/31 08:13:42;;;;;;;;;7.80;6.60;;;;;20.67;54.16;99713.47;6315858;20;2738837;-53
2022/05/31 08:16:16;;;;;;;;;10.33;8.67;;;;;20.59;56.42;99714.25;6327449;20;2761696;-50
2022/05/31 08:18:46;;;;;;;;;7.00;7.00;;;;;21.16;54.11;99718.38;6344531;20;2739899;-53
2022/05/31 08:21:21;;;;;;;;;8.80;6.00;;;;;22.68;51.81;99721.09;6341668;20;2735727;-52
2022/05/31 08:23:51;;;;;;;;;7.00;7.00;;;;;23.62;50.01;99727.75;6343780;20;2744039;-53
2022/05/31 08:26:27;;;;;;;;;8.00;8.00;;;;;23.35;50.02;99723.56;6316047;20;2739874;-54
2022/05/31 08:28:56;;;;;;;;;8.00;7.00;;;;;22.80;50.04;99722.41;6288917;20;2740012;-52
2022/05/31 08:31:33;;;;;;;;;8.33;7.33;;;;;23.16;50.39;99725.66;6315955;20;2750241;-49
2022/05/31 08:34:03;;;;;;;;;9.33;7.00;;;;;23.65;49.54;99730.13;6317478;20;2757556;-53
2022/05/31 08:36:34;;;;;;;;;8.60;7.40;;;;;23.47;48.61;99727.63;6343896;20;2756650;-56
2022/05/31 08:39:03;;;;;;;;;8.00;8.00;;;;;23.14;51.05;99721.38;6288115;20;2750268;-55
2022/05/31 08:41:44;;;;;;;;;7.00;7.00;;;;;22.31;52.26;99716.97;6325079;20;2754501;-56
2022/05/31 08:44:28;;;;;;;;;4.00;4.00;;;;;21.85;51.41;99720.09;6345962;20;2724248;-51
2022/05/31 08:47:43;;;;;;;;;9.00;9.00;;;;;21.54;53.75;99722.53;6319260;20;2751370;-52
2022/05/31 08:53:44;;;;;;;;;9.50;9.50;;;;;21.12;53.98;99709.66;6340694;20;2781550;-50
2022/05/31 08:59:33;;;;;;;;;9.00;9.00;;;;;21.60;55.69;99724.59;6338876;20;2753421;-48
2022/05/31 09:02:16;;;;;;;;;8.33;8.00;;;;;21.34;55.08;99723.78;6287268;20;2759631;-53
2022/05/31 09:06:07;;;;;;;;;10.00;10.00;;;;;21.79;53.30;99728.09;6339711;20;2788797;-52
2022/05/31 09:08:53;;;;;;;;;12.00;10.40;;;;;22.28;53.31;99733.72;6308711;20;2792040;-51
2022/05/31 09:12:23;;;;;;;;;9.00;9.00;;;;;22.71;51.73;99723.47;6278286;20;2756526;-51
2022/05/31 09:15:26;;;;;;;;;10.00;9.00;;;;;22.08;54.37;99717.56;6313476;20;2763806;-53
2022/05/31 09:19:01;;;;;;;;;9.67;9.00;;;;;21.90;55.99;99719.56;6313270;20;2761755;-53
2022/05/31 09:21:49;;;;;;;;;10.00;10.00;;;;;21.52;54.71;99715.53;6311232;20;3509660;-48
2022/05/31 09:24:22;;;;;;;;;9.00;9.00;;;;;21.65;54.70;99721.38;6313161;20;3450362;-49
2022/05/31 09:27:09;;;;;;;;;12.67;9.67;;;;;21.29;56.00;99710.59;6310367;20;2786810;-53
2022/05/31 09:30:08;;;;;;;;;11.00;10.00;;;;;21.64;56.72;99715.06;6316869;20;2788938;-57
2022/05/31 09:33:24;;;;;;;;;18.33;14.33;;;;;21.64;56.50;99723.28;6312574;20;3550252;-56
2022/05/31 09:36:22;;;;;;;;;12.67;12.33;;;;;22.09;53.90;99715.69;6285511;20;2789856;-52
2022/05/31 09:39:16;;;;;;;;;11.00;11.00;;;;;22.01;54.19;99719.28;6313070;20;2491935;-54
2022/05/31 09:42:22;;;;;;;;;16.00;15.00;;;;;21.77;56.66;99714.56;6313022;20;2483612;-54
2022/05/31 09:45:17;;;;;;;;;17.33;15.33;;;;;21.79;56.81;99717.16;6315644;20;3551287;-55
2022/05/31 09:47:46;;;;;;;;;16.00;14.00;;;;;21.56;56.41;99709.56;6284780;20;2800270;-53
2022/05/31 09:50:26;;;;;;;;;16.33;13.67;;;;;21.49;57.23;99705.78;6283605;20;2487782;-56
2022/05/31 09:52:58;;;;;;;;;15.67;12.33;;;;;21.67;57.73;99709.28;6315701;20;3527379;-55
2022/05/31 09:58:38;;;;;;;;;13.00;12.67;;;;;21.66;56.14;99707.53;6285283;20;2488192;-50
2022/05/31 10:01:15;;;;;;;;;11.60;9.40;;;;;21.64;57.05;99704.16;6337320;20;2780576;-51
2022/05/31 10:04:10;;;;;;;;;15.00;14.00;;;;;21.94;56.44;99712.75;6284586;20;2810667;-54
2022/05/31 10:07:03;;;;;;;;;15.00;14.00;;;;;22.32;56.90;99703.09;6284041;20;2810662;-51
2022/05/31 10:09:43;;;;;;;;;18.50;15.50;;;;;23.41;53.80;99700.94;6281829;20;2821077;-55
2022/05/31 10:12:31;;;;;;;;;15.67;12.67;;;;;24.26;50.30;99709.25;6284963;20;3515844;-51
2022/05/31 10:15:03;;;;;;;;;15.33;14.00;;;;;23.49;52.34;99705.53;6316272;20;3534592;-54
2022/05/31 10:17:43;;;;;;;;;16.00;16.00;;;;;23.33;52.71;99711.91;6282897;20;2483585;-53
2022/05/31 10:20:23;;;;;;;;;19.00;17.33;;;;;23.53;53.26;99701.41;6315136;20;3556490;-56
2022/05/31 10:23:15;;;;;;;;;17.33;17.33;;;;;24.58;48.64;99710.06;6287167;20;3566970;-54
2022/05/31 10:25:55;;;;;;;;;16.33;15.00;;;;;24.21;49.86;99705.34;6287490;20;3545038;-55
2022/05/31 10:28:50;;;;;;;;;17.00;16.00;;;;;24.06;50.04;99699.75;6319255;20;3559592;-52
2022/05/31 10:31:35;;;;;;;;;18.50;17.50;;;;;22.81;54.14;99696.78;6280933;20;2824258;-54
2022/05/31 10:34:22;;;;;;;;;16.33;16.00;;;;;22.98;54.92;99706.69;6285957;20;2500246;-49
2022/05/31 10:36:59;;;;;;;;;20.00;15.00;;;;;22.81;54.35;99696.78;6311201;20;2705612;-55
2022/05/31 10:39:38;;;;;;;;;21.00;18.33;;;;;22.69;55.45;99692.66;6317988;20;3571095;-51
2022/05/31 10:42:14;;;;;;;;;16.50;15.50;;;;;23.39;52.83;99684.66;6279792;20;2827320;-52
2022/05/31 10:44:51;;;;;;;;;15.00;15.00;;;;;22.52;55.00;99684.47;6285974;20;3532519;-53
2022/05/31 10:47:24;;;;;;;;;25.00;19.00;;;;;22.31;55.59;99695.09;6316278;20;3566911;-54
2022/05/31 10:49:52;;;;;;;;;16.00;16.00;;;;;22.30;55.12;99683.28;6284277;20;3562717;-51
2022/05/31 10:52:55;;;;;;;;;20.00;18.00;;;;;23.29;54.01;99683.16;6282770;20;3563909;-51
2022/05/31 10:55:45;;;;;;;;;27.00;21.33;;;;;22.62;55.08;99680.69;6282641;20;3577375;-54
2022/05/31 10:58:58;;;;;;;;;22.33;21.33;;;;;23.09;51.95;99677.22;6284135;20;3577314;-52
2022/05/31 11:01:52;;;;;;;;;18.50;17.50;;;;;24.05;50.75;99681.63;6286004;20;2831577;-55
2022/05/31 11:05:07;;;;;;;;;19.00;18.00;;;;;24.05;51.80;99673.38;6290196;20;3569003;-56
2022/05/31 11:12:13;;;;;;;;;22.33;20.67;;;;;23.12;54.25;99676.91;6319757;20;3572150;-53
2022/05/31 11:15:01;;;;;;;;;22.67;20.00;;;;;23.07;54.48;99668.34;6292806;20;3573305;-52
2022/05/31 11:17:57;;;;;;;;;22.33;20.00;;;;;24.08;50.82;99673.00;6290808;20;3577748;-53
2022/05/31 11:21:17;;;;;;;;;18.00;18.00;;;;;24.90;49.03;99672.34;6287187;20;2829416;-54
2022/05/31 11:24:46;;;;;;;;;20.67;18.00;;;;;24.15;51.09;99673.16;6286937;20;3581473;-52
2022/05/31 11:27:41;;;;;;;;;18.67;18.00;;;;;24.61;49.37;99671.25;6287279;20;3562835;-55
2022/05/31 11:30:56;;;;;;;;;20.33;20.33;;;;;25.00;48.48;99667.44;6288407;20;3568078;-54
2022/05/31 11:33:55;;;;;;;;;21.67;20.00;;;;;25.09;47.93;99668.19;6292728;20;3566880;-57
2022/05/31 11:37:22;;;;;;;;;18.50;16.00;;;;;23.85;48.56;99670.25;6288226;20;2827387;-54
2022/05/31 11:40:04;;;;;;;;;16.00;16.00;;;;;23.55;50.25;99660.97;6284368;20;2831508;-53
2022/05/31 11:42:44;;;;;;;;;21.33;19.00;;;;;22.63;52.38;99660.53;6291970;20;3571053;-53
2022/05/31 11:45:44;;;;;;;;;21.00;21.00;;;;;22.77;53.26;99657.06;6290654;20;3585757;-54
2022/05/31 11:48:32;;;;;;;;;20.33;20.00;;;;;24.44;51.25;99667.81;6287591;20;3574167;-55
2022/05/31 11:51:48;;;;;;;;;20.33;20.33;;;;;25.83;47.91;99663.50;6290119;20;3583996;-53
2022/05/31 11:58:24;;;;;;;;;21.00;20.00;;;;;24.39;48.62;99644.66;6317107;20;3567953;-53
2022/05/31 12:01:14;;;;;;;;;22.00;20.33;;;;;24.64;48.33;99645.31;6317354;20;3576260;-52
2022/05/31 12:04:10;;;;;;;;;20.67;19.00;;;;;24.49;48.56;99645.28;6291039;20;3574180;-54
2022/05/31 12:07:16;;;;;;;;;21.00;20.67;;;;;24.76;48.74;99641.06;6291555;20;3585690;-56
2022/05/31 12:10:21;;;;;;;;;24.33;24.33;;;;;24.21;49.43;99634.84;6289271;20;3571076;-50
2022/05/31 12:12:55;;;;;;;;;21.67;19.00;;;;;24.80;49.22;99639.66;6281202;20;2832727;-55
2022/05/31 12:15:34;;;;;;;;;22.33;20.67;;;;;24.73;47.84;99634.06;6321071;20;3585650;-54
2022/05/31 12:18:51;;;;;;;;;22.00;20.67;;;;;25.19;47.61;99642.16;6286556;20;3580580;-56
2022/05/31 12:21:45;;;;;;;;;17.67;17.67;;;;;25.64;45.40;99636.59;6284239;20;2490093;-55
2022/05/31 12:24:43;;;;;;;;;17.67;17.67;;;;;25.53;46.58;99635.19;6318600;20;3564805;-55